Time;durP1;ratioP1;P1;durP2;ratioP2;P2;SDS_P1;SDS_P2;PMS_P1;PMS_P2;Temp;Humidity;BMP_temperature;BMP_pressure;BME280_temperature;BME280_humidity;BME280_pressure;Samples;Min_cycle;Max_cycle;Signal;HPM_P1;HPM_P2
2023/05/31 04:06:18;;;;;;;12.27;4.87;;;;;;;16.59;97.31;100586.88;5612299;31;670967;-88
2023/05/31 04:09:29;;;;;;;8.93;5.40;;;;;;;16.63;96.32;100585.72;5607581;31;33802;-89
2023/05/31 04:12:36;;;;;;;9.52;5.43;;;;;;;16.75;96.44;100585.78;5604281;31;33924;-88
2023/05/31 04:15:44;;;;;;;8.93;4.82;;;;;;;16.87;95.82;100587.56;5604831;31;33653;-88
2023/05/31 04:18:53;;;;;;;7.68;4.90;;;;;;;16.98;94.52;100593.00;5604818;31;34649;-88
2023/05/31 04:22:01;;;;;;;9.30;4.80;;;;;;;17.04;91.84;100598.91;5605037;31;33691;-88
2023/05/31 04:25:12;;;;;;;9.10;4.70;;;;;;;17.17;91.95;100599.72;5618335;26;33459;-88
2023/05/31 04:28:20;;;;;;;8.88;4.70;;;;;;;17.31;90.10;100598.69;5605088;31;33625;-88
2023/05/31 04:31:31;;;;;;;10.57;4.90;;;;;;;17.30;89.46;100604.16;5606301;31;33625;-88
2023/05/31 04:34:57;;;;;;;8.17;4.63;;;;;;;17.57;88.69;100603.03;5628691;26;33972;-88
2023/05/31 04:38:08;;;;;;;7.43;4.90;;;;;;;17.71;89.43;100610.06;5614574;31;34115;-87
2023/05/31 04:41:20;;;;;;;9.23;4.62;;;;;;;17.66;89.64;100605.03;5678574;26;35197;-88
2023/05/31 04:44:30;;;;;;;6.80;4.87;;;;;;;17.84;87.90;100605.44;5606402;31;34111;-88
2023/05/31 04:47:36;;;;;;;9.32;4.72;;;;;;;17.87;87.23;100607.91;5616478;31;34009;-88
2023/05/31 04:50:46;;;;;;;9.93;4.72;;;;;;;18.06;84.95;100611.88;5606392;31;34386;-91
2023/05/31 04:53:56;;;;;;;15.02;5.00;;;;;;;18.04;85.02;100611.97;5593379;31;34922;-88
2023/05/31 04:57:03;;;;;;;7.97;4.60;;;;;;;17.98;85.64;100617.81;5585827;31;33510;-89
2023/05/31 06:12:33;;;;;;;8.60;4.35;;;;;;;22.15;60.45;100645.44;5489657;32;20109;-89
2023/05/31 06:16:07;;;;;;;10.35;4.78;;;;;;;22.80;57.20;100646.50;5484781;32;33214;-90
2023/05/31 06:19:18;;;;;;;6.15;4.35;;;;;;;23.09;56.94;100651.75;5486732;32;33777;-87
2023/05/31 06:22:49;;;;;;;6.00;4.07;;;;;;;23.56;55.51;100655.31;5446241;32;33872;-88
2023/05/31 06:26:00;;;;;;;9.52;4.57;;;;;;;24.48;53.07;100657.69;5465678;32;33693;-88
2023/05/31 06:29:13;;;;;;;9.65;4.37;;;;;;;25.37;48.74;100653.81;5456918;32;33318;-86
2023/05/31 06:32:37;;;;;;;6.43;4.35;;;;;;;25.46;46.09;100654.66;5468133;32;33937;-88
2023/05/31 06:35:54;;;;;;;6.43;4.07;;;;;;;25.19;47.56;100650.37;5438243;32;33625;-85
2023/05/31 06:39:13;;;;;;;7.47;4.40;;;;;;;25.55;45.77;100652.84;5469563;32;34080;-84
2023/05/31 06:42:37;;;;;;;7.53;4.12;;;;;;;24.87;46.94;100658.25;5434585;32;35382;-86
2023/05/31 06:46:07;;;;;;;6.40;3.85;;;;;;;24.07;49.71;100650.16;5447068;32;34415;-88
2023/05/31 06:49:34;;;;;;;6.85;4.25;;;;;;;24.02;48.69;100652.47;5444808;32;33884;-90
2023/05/31 06:52:53;;;;;;;7.35;4.12;;;;;;;24.35;49.11;100649.16;5485673;27;33596;-88
2023/05/31 07:03:39;;;;;;;10.80;4.70;;;;;;;24.20;49.24;100651.59;1960383;30;20635;-90
2023/05/31 08:27:43;;;;;;;7.03;4.20;;;;;;;27.14;35.61;100674.09;5512301;27;20632;-89
2023/05/31 08:31:04;;;;;;;7.75;3.90;;;;;;;27.41;35.52;100663.72;5502706;32;34172;-89
2023/05/31 08:34:16;;;;;;;6.40;3.72;;;;;;;28.40;33.87;100665.81;5501361;32;34682;-87
2023/05/31 08:37:26;;;;;;;6.53;3.80;;;;;;;28.30;33.64;100675.09;5496362;32;34312;-88
2023/05/31 08:40:44;;;;;;;6.35;4.00;;;;;;;28.83;34.06;100678.78;5457605;32;33974;-90
2023/05/31 08:48:06;;;;;;;8.20;4.22;;;;;;;28.76;32.42;100676.81;5508091;27;34117;-90
2023/05/31 10:58:38;;;;;;;7.87;4.82;;;;;;;29.84;31.65;100606.97;5384191;33;31907;-90
2023/05/31 11:01:41;;;;;;;9.55;4.62;;;;;;;30.34;31.85;100616.13;5397411;32;33853;-89
2023/05/31 11:04:44;;;;;;;6.32;4.47;;;;;;;31.28;30.83;100605.56;5426840;27;34671;-89
2023/05/31 11:07:47;;;;;;;7.72;4.40;;;;;;;31.35;30.36;100610.19;5404879;32;33742;-86
2023/05/31 11:10:50;;;;;;;10.93;4.50;;;;;;;30.43;30.66;100603.13;5406693;33;34628;-87
2023/05/31 11:14:05;;;;;;;9.98;4.37;;;;;;;30.05;32.00;100599.72;5395613;33;33723;-86
2023/05/31 11:17:07;;;;;;;6.60;4.43;;;;;;;29.50;32.74;100599.53;5396398;33;33495;-86
2023/05/31 11:20:17;;;;;;;4.60;4.18;;;;;;;29.52;33.04;100589.25;5398278;33;34836;-85
2023/05/31 11:23:28;;;;;;;6.93;4.32;;;;;;;28.96;34.19;100602.53;5399290;32;33744;-91
2023/05/31 11:26:31;;;;;;;9.55;4.40;;;;;;;28.31;34.17;100589.53;5392704;33;33877;-86
2023/05/31 11:29:46;;;;;;;8.52;4.45;;;;;;;28.70;35.27;100584.78;5399586;33;33141;-88
2023/05/31 11:32:56;;;;;;;7.85;4.53;;;;;;;28.38;33.40;100585.03;5401425;33;33701;-87
2023/05/31 11:36:02;;;;;;;8.88;4.72;;;;;;;27.65;34.72;100588.31;5404596;32;33771;-86
2023/05/31 11:39:05;;;;;;;7.03;4.82;;;;;;;27.44;35.53;100578.06;5395628;32;33655;-86
2023/05/31 11:42:10;;;;;;;8.10;4.80;;;;;;;27.65;34.97;100582.84;5394557;33;33713;-86
2023/05/31 11:45:14;;;;;;;8.75;4.72;;;;;;;28.24;33.85;100564.91;5397690;33;33957;-86
2023/05/31 11:48:29;;;;;;;7.82;4.47;;;;;;;28.70;32.79;100573.84;5397111;33;33865;-86
2023/05/31 11:51:32;;;;;;;7.90;4.82;;;;;;;28.61;32.99;100562.22;5399264;33;34598;-86
2023/05/31 11:54:35;;;;;;;9.02;4.57;;;;;;;28.42;33.75;100563.66;5382034;33;34109;-89
2023/05/31 11:57:46;;;;;;;7.20;4.47;;;;;;;28.65;33.93;100559.94;5397278;33;33834;-89
2023/05/31 12:00:49;;;;;;;8.30;4.47;;;;;;;29.11;32.92;100566.97;5392060;32;33784;-89
2023/05/31 12:04:01;;;;;;;7.20;4.40;;;;;;;29.37;31.28;100561.97;5389885;33;34199;-89
2023/05/31 12:07:05;;;;;;;8.65;4.97;;;;;;;28.75;31.71;100554.16;5397077;33;33527;-88
2023/05/31 12:10:09;;;;;;;6.50;4.55;;;;;;;27.33;35.40;100554.84;5403335;32;34188;-89
2023/05/31 12:13:16;;;;;;;8.02;4.75;;;;;;;27.36;34.84;100550.91;5407976;32;35211;-88
2023/05/31 12:16:18;;;;;;;6.45;4.72;;;;;;;27.73;35.49;100548.38;5410851;33;34989;-88
2023/05/31 12:19:21;;;;;;;6.55;4.62;;;;;;;28.53;33.96;100551.41;5391631;33;34882;-87
2023/05/31 12:22:25;;;;;;;7.80;4.82;;;;;;;28.71;32.49;100550.97;5389467;33;34091;-87
2023/05/31 12:25:28;;;;;;;9.02;4.43;;;;;;;27.58;34.00;100558.25;5392362;33;33527;-87
2023/05/31 12:28:31;;;;;;;11.15;4.87;;;;;;;27.19;34.45;100551.03;5398084;33;33640;-88
2023/05/31 12:31:36;;;;;;;8.77;4.87;;;;;;;26.87;35.63;100547.50;5394269;33;33941;-89
2023/05/31 12:34:39;;;;;;;8.68;4.70;;;;;;;26.89;37.56;100535.41;5396328;32;33968;-87
2023/05/31 12:37:42;;;;;;;5.85;4.28;;;;;;;27.11;35.41;100541.03;5407230;33;33648;-87
2023/05/31 12:40:45;;;;;;;7.35;4.70;;;;;;;27.63;32.98;100535.87;5447200;27;35286;-88
2023/05/31 12:43:48;;;;;;;8.02;4.70;;;;;;;28.08;34.08;100532.34;5423901;32;33725;-87
2023/05/31 12:46:59;;;;;;;6.93;4.87;;;;;;;28.28;32.46;100537.25;5431412;32;34869;-87
2023/05/31 12:50:06;;;;;;;6.15;4.35;;;;;;;28.07;30.47;100541.56;5413745;32;35167;-91
2023/05/31 12:53:09;;;;;;;6.55;4.15;;;;;;;28.09;31.85;100539.47;5411284;32;34263;-91
2023/05/31 12:56:12;;;;;;;7.07;4.80;;;;;;;28.15;31.77;100530.53;5412509;32;33762;-88
2023/05/31 12:59:18;;;;;;;6.22;4.55;;;;;;;27.63;31.20;100533.16;5418228;32;33789;-88
2023/05/31 13:02:20;;;;;;;6.97;4.60;;;;;;;27.21;32.09;100518.19;5419160;32;34037;-87
2023/05/31 13:05:25;;;;;;;8.60;4.70;;;;;;;27.20;31.92;100519.22;5418909;32;34011;-87
2023/05/31 13:08:28;;;;;;;6.28;4.60;;;;;;;27.25;31.55;100517.63;5419124;32;33972;-87
2023/05/31 13:11:35;;;;;;;11.38;4.82;;;;;;;27.62;31.74;100512.41;5418499;32;33727;-87
2023/05/31 13:14:38;;;;;;;10.48;4.60;;;;;;;27.81;32.05;100516.44;5418790;32;34175;-88
2023/05/31 13:17:41;;;;;;;8.15;4.90;;;;;;;27.27;32.13;100512.00;5419253;32;33813;-88
2023/05/31 13:20:45;;;;;;;7.07;4.85;;;;;;;27.43;31.92;100502.84;5420950;32;33813;-87
2023/05/31 13:24:00;;;;;;;9.05;4.90;;;;;;;27.47;32.32;100497.87;5420684;32;33827;-87
2023/05/31 13:27:03;;;;;;;8.27;4.70;;;;;;;27.35;33.33;100492.88;5434126;32;33686;-87
2023/05/31 13:30:07;;;;;;;5.85;4.60;;;;;;;27.64;32.38;100495.84;5409607;32;33706;-88
2023/05/31 13:33:10;;;;;;;6.32;4.55;;;;;;;27.34;32.00;100490.34;5405085;32;34219;-88
2023/05/31 13:36:15;;;;;;;15.38;4.80;;;;;;;26.96;32.72;100485.72;5415926;32;33974;-86
2023/05/31 13:39:18;;;;;;;5.43;4.32;;;;;;;27.08;33.59;100494.28;5449566;27;33743;-87
2023/05/31 13:42:21;;;;;;;6.45;4.72;;;;;;;27.37;33.20;100482.66;5429250;32;33963;-86
2023/05/31 13:45:24;;;;;;;6.97;5.20;;;;;;;27.48;32.96;100488.66;5444110;32;33822;-86
2023/05/31 13:48:27;;;;;;;7.65;4.60;;;;;;;27.38;33.56;100484.34;5447664;32;34777;-86
2023/05/31 13:51:29;;;;;;;6.97;4.72;;;;;;;27.77;32.78;100484.31;5448522;32;34628;-86
2023/05/31 13:54:32;;;;;;;13.85;4.85;;;;;;;26.98;33.46;100479.06;5507106;27;33739;-85
2023/05/31 13:57:35;;;;;;;6.15;4.43;;;;;;;27.43;33.11;100472.88;5427929;32;33827;-86
2023/05/31 14:00:38;;;;;;;6.80;4.32;;;;;;;27.32;33.13;100471.47;5430589;32;34404;-86
2023/05/31 14:03:47;;;;;;;10.17;4.63;;;;;;;27.25;33.72;100470.50;5418238;32;33844;-86
2023/05/31 14:06:50;;;;;;;6.68;4.50;;;;;;;27.37;33.38;100460.87;5408578;32;34237;-86
2023/05/31 14:09:53;;;;;;;7.72;4.75;;;;;;;27.42;33.57;100466.59;5411886;32;33813;-86
2023/05/31 14:12:55;;;;;;;7.65;4.95;;;;;;;27.48;33.99;100458.69;5417940;32;33769;-89
2023/05/31 14:16:00;;;;;;;6.53;4.72;;;;;;;27.46;33.19;100456.19;5415241;32;34278;-90
2023/05/31 14:19:03;;;;;;;8.32;4.95;;;;;;;27.58;32.74;100459.31;5406298;33;34243;-89
2023/05/31 14:22:06;;;;;;;6.78;4.60;;;;;;;27.45;32.72;100462.62;5408317;32;33922;-89
2023/05/31 14:25:10;;;;;;;8.13;4.45;;;;;;;26.97;33.82;100452.88;5413736;32;34739;-90
2023/05/31 14:28:13;;;;;;;8.82;4.70;;;;;;;27.07;33.89;100455.34;5417011;32;33941;-87
2023/05/31 14:31:16;;;;;;;7.37;4.70;;;;;;;27.19;33.96;100455.75;5415475;32;33790;-88
2023/05/31 14:34:19;;;;;;;7.72;4.70;;;;;;;27.31;34.49;100456.16;5417127;32;33650;-87
2023/05/31 14:37:22;;;;;;;4.95;4.35;;;;;;;26.74;34.82;100458.28;5424338;32;33964;-88
2023/05/31 14:40:39;;;;;;;7.57;4.45;;;;;;;26.76;34.72;100451.63;5422709;32;34101;-92
2023/05/31 14:43:42;;;;;;;6.35;4.70;;;;;;;26.60;34.67;100454.50;5416268;32;34485;-88
2023/05/31 14:46:45;;;;;;;8.40;4.85;;;;;;;26.59;34.08;100453.63;5415570;32;33035;-87
2023/05/31 14:49:48;;;;;;;6.47;4.75;;;;;;;26.48;33.96;100456.75;5413967;32;34849;-88
2023/05/31 14:52:51;;;;;;;8.85;4.60;;;;;;;26.81;34.35;100445.69;5418487;32;33799;-88
2023/05/31 14:55:53;;;;;;;13.38;5.20;;;;;;;26.46;34.75;100451.50;5415945;32;34158;-87
2023/05/31 14:59:11;;;;;;;10.43;4.87;;;;;;;26.47;34.65;100449.63;5416282;32;33626;-88
2023/05/31 15:02:13;;;;;;;6.55;4.90;;;;;;;26.42;34.40;100447.47;5416886;32;33399;-87
2023/05/31 15:05:16;;;;;;;8.00;5.12;;;;;;;26.42;34.38;100446.59;5416269;32;33951;-88
2023/05/31 15:08:19;;;;;;;6.35;5.10;;;;;;;26.78;33.40;100446.03;5417014;32;34200;-87
2023/05/31 15:11:22;;;;;;;9.00;5.07;;;;;;;26.68;33.78;100445.41;5417129;32;33992;-87
2023/05/31 15:14:24;;;;;;;6.62;5.12;;;;;;;26.65;32.94;100446.66;5417400;32;34495;-88
2023/05/31 15:17:28;;;;;;;8.77;5.30;;;;;;;26.56;32.57;100443.13;5417294;32;33533;-87
2023/05/31 15:20:31;;;;;;;9.23;4.82;;;;;;;26.70;32.68;100449.63;5422586;32;34416;-88
2023/05/31 15:23:34;;;;;;;7.00;4.82;;;;;;;26.79;32.53;100447.72;5417184;32;33880;-88
2023/05/31 15:26:37;;;;;;;8.38;4.72;;;;;;;26.53;32.14;100448.91;5416573;32;34736;-87
2023/05/31 15:29:40;;;;;;;6.75;4.93;;;;;;;26.70;31.45;100444.19;5418002;32;33609;-88
2023/05/31 15:32:42;;;;;;;7.10;4.80;;;;;;;26.42;32.25;100441.16;5421531;32;33595;-87
